createdAt,value
2019-03-20T00:01:43.641Z,3.70
2019-03-20T00:04:07.872Z,3.70
2019-03-20T00:06:37.653Z,3.60
2019-03-20T00:09:09.426Z,3.60
2019-03-20T00:11:39.396Z,3.60
2019-03-20T00:14:09.822Z,3.70
2019-03-20T00:16:40.274Z,3.70
2019-03-20T00:19:10.215Z,3.70
2019-03-20T00:21:39.947Z,3.60
2019-03-20T00:24:09.716Z,3.60
2019-03-20T00:26:39.638Z,3.60
2019-03-20T00:29:09.442Z,3.60
2019-03-20T00:31:39.321Z,3.50
2019-03-20T00:34:09.110Z,3.40
2019-03-20T00:36:38.956Z,3.40
2019-03-20T00:39:09.194Z,3.40
2019-03-20T00:41:38.932Z,3.30
2019-03-20T00:44:09.003Z,3.30
2019-03-20T00:46:38.751Z,3.30
2019-03-20T00:49:08.470Z,3.30
2019-03-20T00:51:38.253Z,3.30
2019-03-20T00:54:08.153Z,3.20
2019-03-20T00:56:38.065Z,3.20
2019-03-20T00:59:07.824Z,3.20
2019-03-20T01:01:37.638Z,3.10
2019-03-20T01:04:07.370Z,3.10
2019-03-20T01:06:37.163Z,3.10
2019-03-20T01:09:07.726Z,3.10
2019-03-20T01:11:37.508Z,3.00
2019-03-20T01:14:09.167Z,3.00
2019-03-20T01:16:38.985Z,3.00
2019-03-20T01:19:08.690Z,3.00
2019-03-20T01:21:38.470Z,3.00
2019-03-20T01:24:08.212Z,3.00
2019-03-20T01:26:37.933Z,3.00
2019-03-20T01:29:07.691Z,2.90
2019-03-20T01:31:37.380Z,3.00
2019-03-20T01:34:07.112Z,3.00
2019-03-20T01:36:36.822Z,3.00
2019-03-20T01:39:07.285Z,3.00
2019-03-20T01:41:38.322Z,3.00
2019-03-20T01:44:08.454Z,3.00
2019-03-20T01:46:38.241Z,3.10
2019-03-20T01:49:08.059Z,3.10
2019-03-20T01:51:37.761Z,3.30
2019-03-20T01:54:07.507Z,3.30
2019-03-20T01:56:37.234Z,3.20
2019-03-20T01:59:07.126Z,3.30
2019-03-20T02:01:36.886Z,3.30
2019-03-20T02:04:06.774Z,3.30
2019-03-20T02:06:36.455Z,3.30
2019-03-20T02:09:07.373Z,3.20
2019-03-20T02:11:37.115Z,3.20
2019-03-20T02:14:07.765Z,3.20
2019-03-20T02:16:37.757Z,3.30
2019-03-20T02:19:07.469Z,3.20
2019-03-20T02:21:37.224Z,3.20
2019-03-20T02:24:07.052Z,3.20
2019-03-20T02:26:36.821Z,3.10
2019-03-20T02:29:06.634Z,3.10
2019-03-20T02:31:36.388Z,3.00
2019-03-20T02:34:06.102Z,3.00
2019-03-20T02:36:35.954Z,3.00
2019-03-20T02:39:07.281Z,2.90
2019-03-20T02:41:37.059Z,2.90
2019-03-20T02:44:06.918Z,2.80
2019-03-20T02:46:36.717Z,2.70
2019-03-20T02:49:06.525Z,2.60
2019-03-20T02:51:37.246Z,2.60
2019-03-20T02:54:07.997Z,2.60
2019-03-20T02:56:37.734Z,2.50
2019-03-20T02:59:07.521Z,2.50
2019-03-20T03:01:37.267Z,2.50
2019-03-20T03:04:07.191Z,2.50
2019-03-20T03:06:36.994Z,2.60
2019-03-20T03:09:08.444Z,2.60
2019-03-20T03:11:38.212Z,2.70
2019-03-20T03:14:08.177Z,2.70
2019-03-20T03:16:37.920Z,2.70
2019-03-20T03:19:07.656Z,2.70
2019-03-20T03:21:37.467Z,2.70
2019-03-20T03:24:07.196Z,2.70
2019-03-20T03:26:36.997Z,2.70
2019-03-20T03:29:06.792Z,2.60
2019-03-20T03:31:36.610Z,2.50
2019-03-20T03:34:06.389Z,2.40
2019-03-20T03:36:36.215Z,2.40
2019-03-20T03:39:07.687Z,2.30
2019-03-20T03:41:37.577Z,2.30
2019-03-20T03:44:07.309Z,2.30
2019-03-20T03:46:37.110Z,2.20
2019-03-20T03:49:08.723Z,2.20
2019-03-20T03:51:38.522Z,2.20
2019-03-20T03:54:08.310Z,2.20
2019-03-20T03:56:38.400Z,2.20
2019-03-20T03:59:08.347Z,2.20
2019-03-20T04:01:38.064Z,2.20
2019-03-20T04:04:07.779Z,2.20
2019-03-20T04:06:37.626Z,2.20
2019-03-20T04:09:11.212Z,2.20
2019-03-20T04:11:40.993Z,2.20
2019-03-20T04:14:10.782Z,2.10
2019-03-20T04:16:40.499Z,2.10
2019-03-20T04:19:10.262Z,2.20
2019-03-20T04:21:40.033Z,2.30
2019-03-20T04:24:09.750Z,2.30
2019-03-20T04:26:39.479Z,2.40
2019-03-20T04:29:09.219Z,2.40
2019-03-20T04:31:39.246Z,2.40
2019-03-20T04:34:08.999Z,2.30
2019-03-20T04:36:47.174Z,2.20
2019-03-20T04:39:10.135Z,2.20
2019-03-20T04:41:39.960Z,2.10
2019-03-20T04:44:09.676Z,2.20
2019-03-20T04:46:39.390Z,2.30
2019-03-20T04:49:09.164Z,2.30
2019-03-20T04:51:38.877Z,2.30
2019-03-20T04:54:08.626Z,2.30
2019-03-20T04:56:38.316Z,2.30
2019-03-20T04:59:08.112Z,2.30
2019-03-20T05:01:37.813Z,2.30
2019-03-20T05:04:07.561Z,2.30
2019-03-20T05:06:37.250Z,2.30
2019-03-20T05:09:07.534Z,2.30
2019-03-20T05:11:37.291Z,2.30
2019-03-20T05:14:07.018Z,2.40
2019-03-20T05:16:36.844Z,2.40
2019-03-20T05:19:06.561Z,2.40
2019-03-20T05:21:36.285Z,2.40
2019-03-20T05:24:06.183Z,2.40
2019-03-20T05:26:36.017Z,2.40
2019-03-20T05:29:05.869Z,2.40
2019-03-20T05:31:35.583Z,2.40
2019-03-20T05:34:05.310Z,2.50
2019-03-20T05:36:35.030Z,2.50
2019-03-20T05:39:07.499Z,2.60
2019-03-20T05:41:37.162Z,2.60
2019-03-20T05:44:06.998Z,2.60
2019-03-20T05:46:36.764Z,2.60
2019-03-20T05:49:06.585Z,2.70
2019-03-20T05:51:36.336Z,2.70
2019-03-20T05:54:06.283Z,2.80
2019-03-20T05:56:36.081Z,2.90
2019-03-20T05:59:05.872Z,3.00
2019-03-20T06:01:35.605Z,3.10
2019-03-20T06:04:05.630Z,3.10
2019-03-20T06:06:35.432Z,3.20
2019-03-20T06:09:07.571Z,3.20
2019-03-20T06:11:37.463Z,3.30
2019-03-20T06:14:07.236Z,3.30
2019-03-20T06:16:38.095Z,3.40
2019-03-20T06:21:48.562Z,3.40
2019-03-20T06:24:18.511Z,3.50
2019-03-20T06:26:48.314Z,3.60
2019-03-20T06:29:20.111Z,3.90
2019-03-20T06:31:49.793Z,4.30
2019-03-20T06:34:19.547Z,4.60
2019-03-20T06:36:49.339Z,4.90
2019-03-20T06:39:19.171Z,5.10
2019-03-20T06:41:48.969Z,5.30
2019-03-20T06:44:18.828Z,5.60
2019-03-20T06:46:48.665Z,5.70
2019-03-20T06:49:18.437Z,5.80
2019-03-20T06:51:48.267Z,5.90
2019-03-20T06:54:17.983Z,6.00
2019-03-20T06:56:47.692Z,6.10
2019-03-20T07:00:11.504Z,6.30
2019-03-20T07:02:44.668Z,6.40
2019-03-20T07:05:57.844Z,6.50
2019-03-20T07:08:30.848Z,6.60
2019-03-20T07:11:05.917Z,6.70
2019-03-20T07:13:35.757Z,6.80
2019-03-20T07:16:06.439Z,6.80
2019-03-20T07:18:36.203Z,6.90
2019-03-20T07:21:06.860Z,6.90
2019-03-20T07:23:36.649Z,6.90
2019-03-20T07:26:06.325Z,6.90
2019-03-20T07:28:36.053Z,6.90
2019-03-20T07:31:14.678Z,6.90
2019-03-20T07:33:37.304Z,6.90
2019-03-20T07:36:07.014Z,7.00
2019-03-20T07:38:36.731Z,7.10
2019-03-20T07:41:06.637Z,7.10
2019-03-20T07:43:36.427Z,7.10
2019-03-20T07:46:06.162Z,7.10
2019-03-20T07:48:35.954Z,7.20
2019-03-20T07:51:05.725Z,7.20
2019-03-20T07:53:35.499Z,7.30
2019-03-20T07:56:05.269Z,7.30
2019-03-20T07:58:35.083Z,7.40
2019-03-20T08:01:04.792Z,7.50
2019-03-20T08:03:34.510Z,7.60
2019-03-20T08:06:04.568Z,7.70
2019-03-20T08:08:34.269Z,7.80
2019-03-20T08:11:04.204Z,7.80
2019-03-20T08:13:34.085Z,7.90
2019-03-20T08:16:04.126Z,8.00
2019-03-20T08:18:34.120Z,8.10
2019-03-20T08:21:05.242Z,8.20
2019-03-20T08:23:34.929Z,8.30
2019-03-20T08:26:05.031Z,8.40
2019-03-20T08:28:34.831Z,8.40
2019-03-20T08:31:04.838Z,8.50
2019-03-20T08:33:34.605Z,8.60
2019-03-20T08:36:04.532Z,8.50
2019-03-20T08:38:34.265Z,8.60
2019-03-20T08:41:04.106Z,8.70
2019-03-20T08:43:33.887Z,8.80
2019-03-20T08:46:03.652Z,9.00
2019-03-20T08:48:34.409Z,9.10
2019-03-20T08:51:04.393Z,9.20
2019-03-20T08:53:34.109Z,9.30
2019-03-20T08:56:03.773Z,9.30
2019-03-20T08:58:33.451Z,9.40
2019-03-20T09:01:03.138Z,9.40
2019-03-20T09:03:32.862Z,9.40
2019-03-20T09:06:02.692Z,9.30
2019-03-20T09:08:32.384Z,9.20
2019-03-20T09:11:02.123Z,9.20
2019-03-20T09:13:31.824Z,9.20
2019-03-20T09:16:01.594Z,9.30
2019-03-20T09:18:31.309Z,9.40
2019-03-20T09:21:01.017Z,9.60
2019-03-20T09:23:30.746Z,9.70
2019-03-20T09:26:00.518Z,9.80
2019-03-20T09:28:30.249Z,9.80
2019-03-20T09:30:59.935Z,9.90
2019-03-20T09:33:29.621Z,9.90
2019-03-20T09:35:59.355Z,10.00
2019-03-20T09:38:30.112Z,10.10
2019-03-20T09:40:59.936Z,10.20
2019-03-20T09:43:29.675Z,10.30
2019-03-20T09:45:59.417Z,10.40
2019-03-20T09:48:29.107Z,10.50
2019-03-20T09:50:58.936Z,10.40
2019-03-20T09:53:28.632Z,10.40
2019-03-20T09:55:58.403Z,10.40
2019-03-20T09:58:28.140Z,10.40
2019-03-20T10:00:57.886Z,10.40
2019-03-20T10:03:27.606Z,10.40
2019-03-20T10:05:57.318Z,10.50
2019-03-20T10:08:27.010Z,10.70
2019-03-20T10:10:56.757Z,10.90
2019-03-20T10:13:26.482Z,10.80
2019-03-20T10:15:56.156Z,10.90
2019-03-20T10:18:25.853Z,11.00
2019-03-20T10:20:55.738Z,11.10
2019-03-20T10:23:25.447Z,11.10
2019-03-20T10:25:55.166Z,11.10
2019-03-20T10:28:24.864Z,10.90
2019-03-20T10:30:55.870Z,11.00
2019-03-20T10:33:25.694Z,11.10
2019-03-20T10:35:55.510Z,11.10
2019-03-20T10:38:25.259Z,11.10
2019-03-20T10:40:54.975Z,11.20
2019-03-20T10:43:24.811Z,11.20
2019-03-20T10:45:54.699Z,11.20
2019-03-20T10:48:25.393Z,11.30
2019-03-20T10:50:55.108Z,11.40
2019-03-20T10:53:24.901Z,11.50
2019-03-20T10:55:54.644Z,11.50
2019-03-20T10:58:24.493Z,11.50
2019-03-20T11:00:54.214Z,11.50
2019-03-20T11:03:24.005Z,11.70
2019-03-20T11:05:53.720Z,11.80
2019-03-20T11:08:23.541Z,11.80
2019-03-20T11:10:54.331Z,11.80
2019-03-20T11:13:24.052Z,11.90
2019-03-20T11:15:53.777Z,12.00
2019-03-20T11:18:23.555Z,12.20
2019-03-20T11:20:53.708Z,12.30
2019-03-20T11:23:23.726Z,12.30
2019-03-20T11:25:53.503Z,12.40
2019-03-20T11:28:23.273Z,12.60
2019-03-20T11:30:53.050Z,12.80
2019-03-20T11:33:22.856Z,13.10
2019-03-20T11:35:52.582Z,13.20
2019-03-20T11:38:28.410Z,13.20
2019-03-20T11:40:58.132Z,13.30
2019-03-20T11:43:27.828Z,13.30
2019-03-20T11:45:57.611Z,13.10
2019-03-20T11:48:27.288Z,13.20
2019-03-20T11:50:57.096Z,13.20
2019-03-20T11:53:26.863Z,13.30
2019-03-20T11:55:56.561Z,13.20
2019-03-20T11:58:26.412Z,13.30
2019-03-20T12:00:56.196Z,13.20
2019-03-20T12:03:25.873Z,13.00
2019-03-20T12:05:55.560Z,12.90
2019-03-20T12:08:27.010Z,12.90
2019-03-20T12:10:56.731Z,12.80
2019-03-20T12:13:26.600Z,12.80
2019-03-20T12:15:56.312Z,12.80
2019-03-20T12:18:26.110Z,12.80
2019-03-20T12:20:55.870Z,12.80
2019-03-20T12:23:25.566Z,12.80
2019-03-20T12:25:55.301Z,13.10
2019-03-20T12:28:25.251Z,13.30
2019-03-20T12:30:54.955Z,13.20
2019-03-20T12:33:24.735Z,13.10
2019-03-20T12:35:54.752Z,13.10
2019-03-20T12:38:24.489Z,13.20
2019-03-20T12:40:54.230Z,13.10
2019-03-20T12:43:23.998Z,13.10
2019-03-20T12:45:53.807Z,13.30
2019-03-20T12:48:23.524Z,13.20
2019-03-20T12:50:53.246Z,13.40
2019-03-20T12:53:24.563Z,13.40
2019-03-20T12:55:54.478Z,13.50
2019-03-20T12:58:24.198Z,13.40
2019-03-20T13:00:54.673Z,13.40
2019-03-20T13:03:24.639Z,13.40
2019-03-20T13:05:54.475Z,13.30
2019-03-20T13:08:24.199Z,13.30
2019-03-20T13:10:53.902Z,13.40
2019-03-20T13:13:23.621Z,13.40
2019-03-20T13:15:53.442Z,13.30
2019-03-20T13:18:23.154Z,13.30
2019-03-20T13:20:53.098Z,13.30
2019-03-20T13:23:24.948Z,13.40
2019-03-20T13:25:54.803Z,13.60
2019-03-20T13:28:24.538Z,13.80
2019-03-20T13:30:57.377Z,13.80
2019-03-20T13:33:27.246Z,13.70
2019-03-20T13:35:56.963Z,13.60
2019-03-20T13:38:26.718Z,13.60
2019-03-20T13:40:56.407Z,13.50
2019-03-20T13:43:26.187Z,13.50
2019-03-20T13:45:55.968Z,13.50
2019-03-20T13:48:25.711Z,13.50
2019-03-20T13:50:55.390Z,13.40
2019-03-20T13:53:25.131Z,13.40
2019-03-20T13:55:54.823Z,13.40
2019-03-20T13:58:24.534Z,13.40
2019-03-20T14:00:54.258Z,13.30
2019-03-20T14:03:23.934Z,13.20
2019-03-20T14:05:53.663Z,13.20
2019-03-20T14:08:23.406Z,13.30
2019-03-20T14:10:53.078Z,13.40
2019-03-20T14:13:22.874Z,13.50
2019-03-20T14:15:52.586Z,13.40
2019-03-20T14:18:23.298Z,13.40
2019-03-20T14:20:53.003Z,13.40
2019-03-20T14:23:22.702Z,13.30
2019-03-20T14:25:52.378Z,13.30
2019-03-20T14:28:22.063Z,13.10
2019-03-20T14:30:51.765Z,13.00
2019-03-20T14:33:21.414Z,13.00
2019-03-20T14:35:51.565Z,13.20
2019-03-20T14:38:21.472Z,13.40
2019-03-20T14:40:51.318Z,13.90
2019-03-20T14:43:21.988Z,14.20
2019-03-20T14:45:51.680Z,14.00
2019-03-20T14:48:21.514Z,13.70
2019-03-20T14:50:51.256Z,13.40
2019-03-20T14:53:20.962Z,13.30
2019-03-20T14:55:50.667Z,13.10
2019-03-20T14:58:20.550Z,13.10
2019-03-20T15:00:50.294Z,13.10
2019-03-20T15:03:20.012Z,13.20
2019-03-20T15:05:49.735Z,13.20
2019-03-20T15:08:19.415Z,13.20
2019-03-20T15:10:49.200Z,13.10
2019-03-20T15:13:18.894Z,13.20
2019-03-20T15:15:52.616Z,13.20
2019-03-20T15:18:22.384Z,13.30
2019-03-20T15:20:52.192Z,13.30
2019-03-20T15:23:21.966Z,13.30
2019-03-20T15:25:51.749Z,13.40
2019-03-20T15:28:21.459Z,13.40
2019-03-20T15:30:51.240Z,13.40
2019-03-20T15:33:20.935Z,13.40
2019-03-20T15:35:51.625Z,13.40
2019-03-20T15:38:21.324Z,13.50
2019-03-20T15:40:56.134Z,13.40
2019-03-20T15:43:22.494Z,13.40
2019-03-20T15:45:52.266Z,13.30
2019-03-20T15:48:22.103Z,13.30
2019-03-20T15:50:51.785Z,13.20
2019-03-20T15:53:21.607Z,13.30
2019-03-20T15:55:51.437Z,13.30
2019-03-20T15:58:21.119Z,13.30
2019-03-20T16:00:50.809Z,13.20
2019-03-20T16:03:21.228Z,13.20
2019-03-20T16:05:51.127Z,13.20
2019-03-20T16:08:20.968Z,13.20
2019-03-20T16:10:50.767Z,13.20
2019-03-20T16:13:20.692Z,13.20
2019-03-20T16:15:50.453Z,13.20
2019-03-20T16:18:20.317Z,13.10
2019-03-20T16:20:50.111Z,13.10
2019-03-20T16:23:19.822Z,13.00
2019-03-20T16:25:49.630Z,13.00
2019-03-20T16:28:19.512Z,12.90
2019-03-20T16:30:49.456Z,13.00
2019-03-20T16:33:19.332Z,12.90
2019-03-20T16:35:49.241Z,12.90
2019-03-20T16:38:18.945Z,12.90
2019-03-20T16:40:48.639Z,12.90
2019-03-20T16:43:18.443Z,12.90
2019-03-20T16:45:48.129Z,12.80
2019-03-20T16:48:17.892Z,12.80
2019-03-20T16:50:47.585Z,12.80
2019-03-20T16:53:17.451Z,12.70
2019-03-20T16:55:47.261Z,12.70
2019-03-20T16:58:16.976Z,12.70
2019-03-20T17:00:46.645Z,12.60
2019-03-20T17:03:16.423Z,12.60
2019-03-20T17:05:46.124Z,12.60
2019-03-20T17:08:16.905Z,12.60
2019-03-20T17:10:46.914Z,12.50
2019-03-20T17:13:16.604Z,12.50
2019-03-20T17:15:46.479Z,12.50
2019-03-20T17:18:16.235Z,12.50
2019-03-20T17:20:45.983Z,12.50
2019-03-20T17:23:15.849Z,12.50
2019-03-20T17:25:45.667Z,12.50
2019-03-20T17:28:15.433Z,12.50
2019-03-20T17:30:45.550Z,12.50
2019-03-20T17:33:15.291Z,12.50
2019-03-20T17:35:45.087Z,12.50
2019-03-20T17:38:14.935Z,12.50
2019-03-20T17:40:44.647Z,12.50
2019-03-20T17:43:14.439Z,12.50
2019-03-20T17:45:44.218Z,12.50
2019-03-20T17:48:14.022Z,12.40
2019-03-20T17:50:43.945Z,12.40
2019-03-20T17:53:13.659Z,12.30
2019-03-20T17:55:43.390Z,12.40
2019-03-20T17:58:13.231Z,12.40
2019-03-20T18:00:45.381Z,12.40
2019-03-20T18:03:15.152Z,12.40
2019-03-20T18:05:45.059Z,12.40
2019-03-20T18:08:16.031Z,12.40
2019-03-20T18:10:45.803Z,12.30
2019-03-20T18:13:15.684Z,12.30
2019-03-20T18:15:45.671Z,12.30
2019-03-20T18:18:15.601Z,12.30
2019-03-20T18:20:45.458Z,12.30
2019-03-20T18:23:15.367Z,12.30
2019-03-20T18:25:46.543Z,12.30
2019-03-20T18:28:16.604Z,12.20
2019-03-20T18:30:46.465Z,12.20
2019-03-20T18:33:16.639Z,12.20
2019-03-20T18:35:46.448Z,12.30
2019-03-20T18:38:16.241Z,12.30
2019-03-20T18:40:46.014Z,12.20
2019-03-20T18:43:15.795Z,12.20
2019-03-20T18:45:48.679Z,12.10
2019-03-20T18:48:18.377Z,12.10
2019-03-20T18:50:48.125Z,12.10
2019-03-20T18:53:17.852Z,12.00
2019-03-20T18:55:47.663Z,12.10
2019-03-20T18:58:17.357Z,12.10
2019-03-20T19:00:47.221Z,12.00
2019-03-20T19:03:18.390Z,12.00
2019-03-20T19:05:51.439Z,12.00
2019-03-20T19:08:21.339Z,11.90
2019-03-20T19:10:51.274Z,11.80
2019-03-20T19:13:21.105Z,11.80
2019-03-20T19:15:50.948Z,11.80
2019-03-20T19:18:20.884Z,11.80
2019-03-20T19:20:50.754Z,11.70
2019-03-20T19:23:20.590Z,11.70
2019-03-20T19:25:50.337Z,11.70
2019-03-20T19:28:20.286Z,11.70
2019-03-20T19:30:50.197Z,11.70
2019-03-20T19:33:19.895Z,11.70
2019-03-20T19:35:49.728Z,11.70
2019-03-20T19:38:19.447Z,11.70
2019-03-20T19:40:50.603Z,11.70
2019-03-20T19:43:22.667Z,11.70
2019-03-20T19:45:51.914Z,11.70
2019-03-20T19:48:21.786Z,11.80
2019-03-20T19:50:51.608Z,11.80
2019-03-20T19:53:21.365Z,11.80
2019-03-20T19:55:51.098Z,11.80
2019-03-20T19:58:22.001Z,11.80
2019-03-20T20:00:52.785Z,11.80
2019-03-20T20:03:22.648Z,11.80
2019-03-20T20:05:52.412Z,11.80
2019-03-20T20:08:24.357Z,11.80
2019-03-20T20:10:54.070Z,11.80
2019-03-20T20:13:23.817Z,11.80
2019-03-20T20:15:53.612Z,11.80
2019-03-20T20:18:23.361Z,11.70
2019-03-20T20:20:53.117Z,11.80
2019-03-20T20:23:22.819Z,11.80
2019-03-20T20:25:54.193Z,11.70
2019-03-20T20:28:25.235Z,11.80
2019-03-20T20:30:56.611Z,11.80
2019-03-20T20:33:28.621Z,11.80
2019-03-20T20:35:58.395Z,11.80
2019-03-20T20:38:28.191Z,11.70
2019-03-20T20:40:57.896Z,11.80
2019-03-20T20:43:30.105Z,11.80
2019-03-20T20:45:59.866Z,13.20
2019-03-20T20:48:29.663Z,11.80
2019-03-20T20:50:59.441Z,11.80
2019-03-20T20:53:29.149Z,11.80
2019-03-20T20:55:59.091Z,11.80
2019-03-20T20:58:28.849Z,11.70
2019-03-20T21:00:58.534Z,11.80
2019-03-20T21:03:28.259Z,11.80
2019-03-20T21:05:57.957Z,11.80
2019-03-20T21:08:29.609Z,11.80
2019-03-20T21:11:00.644Z,11.80
2019-03-20T21:13:30.344Z,11.70
2019-03-20T21:16:03.767Z,11.70
2019-03-20T21:19:34.652Z,11.70
2019-03-20T21:22:43.800Z,11.70
2019-03-20T21:25:21.050Z,11.70
2019-03-20T21:28:27.247Z,11.70
2019-03-20T21:31:31.928Z,11.70
2019-03-20T21:34:44.125Z,11.70
2019-03-20T21:37:52.877Z,11.60
2019-03-20T21:40:23.913Z,11.60
2019-03-20T21:43:29.770Z,11.60
2019-03-20T21:46:34.291Z,11.50
2019-03-20T21:49:04.783Z,11.50
2019-03-20T21:51:35.048Z,11.50
2019-03-20T21:54:43.679Z,11.50
2019-03-20T21:57:34.904Z,11.50
2019-03-20T22:00:34.324Z,11.50
2019-03-20T22:03:04.598Z,11.50
2019-03-20T22:05:59.299Z,11.40
2019-03-20T22:08:29.552Z,11.40
2019-03-20T22:11:44.782Z,11.40
2019-03-20T22:14:20.823Z,11.30
2019-03-20T22:17:28.573Z,11.30
2019-03-20T22:20:03.956Z,11.30
2019-03-20T22:23:33.564Z,11.30
2019-03-20T22:26:49.966Z,11.30
2019-03-20T22:29:27.600Z,11.30
2019-03-20T22:32:40.226Z,11.30
2019-03-20T22:35:37.351Z,11.20
2019-03-20T22:38:28.842Z,11.10
2019-03-20T22:41:24.650Z,11.10
2019-03-20T22:43:58.604Z,11.00
2019-03-20T22:47:12.355Z,11.00
2019-03-20T22:49:54.602Z,11.00
2019-03-20T22:53:05.093Z,10.90
2019-03-20T22:55:57.340Z,10.90
2019-03-20T22:58:48.948Z,10.90
2019-03-20T23:01:30.455Z,10.90
2019-03-20T23:04:05.695Z,10.90
2019-03-20T23:06:36.978Z,10.80
2019-03-20T23:09:08.665Z,10.80
2019-03-20T23:11:38.956Z,10.80
2019-03-20T23:14:09.216Z,10.80
2019-03-20T23:16:39.472Z,10.80
2019-03-20T23:19:09.669Z,10.80
2019-03-20T23:21:40.036Z,10.80
2019-03-20T23:24:10.258Z,10.80
2019-03-20T23:26:40.489Z,10.80
2019-03-20T23:29:10.711Z,10.80
2019-03-20T23:31:40.920Z,10.80
2019-03-20T23:34:11.226Z,10.80
2019-03-20T23:36:42.708Z,10.80
2019-03-20T23:39:13.036Z,10.90
2019-03-20T23:41:43.370Z,10.80
2019-03-20T23:44:15.457Z,10.90
2019-03-20T23:46:45.811Z,10.80
2019-03-20T23:49:18.784Z,10.80
2019-03-20T23:51:50.652Z,10.80
2019-03-20T23:54:24.532Z,10.80
2019-03-20T23:56:54.822Z,10.90
2019-03-20T23:59:25.064Z,10.80
